createdAt,value
2022-09-04T00:00:38.062Z,1013.03
2022-09-04T00:01:39.523Z,1013.05
2022-09-04T00:02:38.058Z,1013.06
2022-09-04T00:03:38.072Z,1013.07
2022-09-04T00:04:38.151Z,1013.06
2022-09-04T00:05:38.025Z,1013.06
2022-09-04T00:06:38.010Z,1013.08
2022-09-04T00:07:37.995Z,1013.08
2022-09-04T00:08:38.020Z,1013.04
2022-09-04T00:09:38.003Z,1013.03
2022-09-04T00:10:37.969Z,1013.06
2022-09-04T00:11:37.950Z,1013.01
2022-09-04T00:12:37.931Z,1013.01
2022-09-04T00:13:37.928Z,1013.01
2022-09-04T00:14:37.922Z,1012.96
2022-09-04T00:15:37.928Z,1012.99
2022-09-04T00:16:37.954Z,1013.00
2022-09-04T00:17:37.889Z,1013.01
2022-09-04T00:18:37.874Z,1013.03
2022-09-04T00:19:37.864Z,1012.98
2022-09-04T00:20:37.875Z,1013.01
2022-09-04T00:21:37.844Z,1013.05
2022-09-04T00:22:37.824Z,1012.99
2022-09-04T00:23:37.817Z,1012.97
2022-09-04T00:24:37.845Z,1012.99
2022-09-04T00:25:37.812Z,1012.99
2022-09-04T00:26:37.796Z,1012.96
2022-09-04T00:27:37.786Z,1013.00
2022-09-04T00:28:37.793Z,1012.98
2022-09-04T00:29:37.757Z,1013.02
2022-09-04T00:30:37.768Z,1012.99
2022-09-04T00:31:37.743Z,1012.99
2022-09-04T00:32:37.720Z,1013.01
2022-09-04T00:33:37.722Z,1012.99
2022-09-04T00:34:37.702Z,1013.00
2022-09-04T00:35:37.696Z,1013.06
2022-09-04T00:36:37.696Z,1013.02
2022-09-04T00:37:37.678Z,1013.07
2022-09-04T00:38:37.655Z,1013.06
2022-09-04T00:39:37.696Z,1013.07
2022-09-04T00:40:37.633Z,1013.11
2022-09-04T00:41:37.633Z,1013.07
2022-09-04T00:42:37.626Z,1013.12
2022-09-04T00:43:37.606Z,1013.11
2022-09-04T00:44:37.633Z,1013.13
2022-09-04T00:45:37.668Z,1013.09
2022-09-04T00:46:37.591Z,1013.11
2022-09-04T00:47:37.570Z,1013.12
2022-09-04T00:48:37.564Z,1013.08
2022-09-04T00:49:37.551Z,1013.12
2022-09-04T00:50:37.536Z,1013.09
2022-09-04T00:51:37.514Z,1013.14
2022-09-04T00:52:37.517Z,1013.15
2022-09-04T00:53:37.505Z,1013.19
2022-09-04T00:54:37.490Z,1013.16
2022-09-04T00:55:37.473Z,1013.20
2022-09-04T00:56:37.468Z,1013.22
2022-09-04T00:57:37.453Z,1013.17
2022-09-04T00:58:37.456Z,1013.14
2022-09-04T00:59:37.494Z,1013.22
2022-09-04T01:00:37.418Z,1013.16
2022-09-04T01:01:38.905Z,1013.18
2022-09-04T01:02:37.410Z,1013.19
2022-09-04T01:03:37.386Z,1013.16
2022-09-04T01:04:37.407Z,1013.19
2022-09-04T01:05:37.380Z,1013.18
2022-09-04T01:06:37.359Z,1013.22
2022-09-04T01:07:37.369Z,1013.24
2022-09-04T01:08:37.337Z,1013.28
2022-09-04T01:09:37.318Z,1013.19
2022-09-04T01:10:37.338Z,1013.21
2022-09-04T01:11:37.302Z,1013.26
2022-09-04T01:12:37.296Z,1013.28
2022-09-04T01:13:37.287Z,1013.24
2022-09-04T01:14:37.264Z,1013.28
2022-09-04T01:15:37.276Z,1013.27
2022-09-04T01:16:37.376Z,1013.30
2022-09-04T01:17:37.233Z,1013.31
2022-09-04T01:18:37.222Z,1013.32
2022-09-04T01:19:37.217Z,1013.31
2022-09-04T01:20:37.231Z,1013.30
2022-09-04T01:21:37.203Z,1013.32
2022-09-04T01:22:37.205Z,1013.39
2022-09-04T01:23:37.168Z,1013.31
2022-09-04T01:24:37.163Z,1013.33
2022-09-04T01:25:37.143Z,1013.34
2022-09-04T01:26:37.162Z,1013.37
2022-09-04T01:27:37.131Z,1013.38
2022-09-04T01:28:37.127Z,1013.39
2022-09-04T01:29:37.107Z,1013.34
2022-09-04T01:30:37.099Z,1013.37
2022-09-04T01:31:37.172Z,1013.38
2022-09-04T01:32:37.098Z,1013.39
2022-09-04T01:33:37.059Z,1013.41
2022-09-04T01:34:37.054Z,1013.39
2022-09-04T01:35:37.041Z,1013.43
2022-09-04T01:36:37.035Z,1013.42
2022-09-04T01:37:37.296Z,1013.41
2022-09-04T01:38:37.012Z,1013.40
2022-09-04T01:39:37.049Z,1013.43
2022-09-04T01:40:36.983Z,1013.41
2022-09-04T01:41:38.657Z,1013.40
2022-09-04T01:42:36.986Z,1013.41
2022-09-04T01:43:36.959Z,1013.38
2022-09-04T01:44:36.954Z,1013.41
2022-09-04T01:45:36.980Z,1013.39
2022-09-04T01:46:36.924Z,1013.39
2022-09-04T01:47:36.912Z,1013.38
2022-09-04T01:48:36.919Z,1013.39
2022-09-04T01:49:36.888Z,1013.38
2022-09-04T01:50:36.882Z,1013.39
2022-09-04T01:51:36.871Z,1013.40
2022-09-04T01:52:36.934Z,1013.38
2022-09-04T01:53:36.912Z,1013.37
2022-09-04T01:54:36.848Z,1013.35
2022-09-04T01:55:36.822Z,1013.34
2022-09-04T01:56:36.812Z,1013.39
2022-09-04T01:57:36.821Z,1013.36
2022-09-04T01:58:36.799Z,1013.35
2022-09-04T01:59:36.796Z,1013.35
2022-09-04T02:00:37.926Z,1013.37
2022-09-04T02:01:36.778Z,1013.37
2022-09-04T02:02:36.810Z,1013.32
2022-09-04T02:03:36.737Z,1013.35
2022-09-04T02:04:36.732Z,1013.34
2022-09-04T02:05:36.723Z,1013.34
2022-09-04T02:06:36.699Z,1013.34
2022-09-04T02:07:36.691Z,1013.33
2022-09-04T02:08:36.690Z,1013.37
2022-09-04T02:09:36.671Z,1013.33
2022-09-04T02:10:36.684Z,1013.30
2022-09-04T02:11:36.655Z,1013.31
2022-09-04T02:12:36.636Z,1013.31
2022-09-04T02:13:36.630Z,1013.31
2022-09-04T02:14:36.625Z,1013.29
2022-09-04T02:15:36.602Z,1013.31
2022-09-04T02:16:36.683Z,1013.29
2022-09-04T02:17:36.585Z,1013.32
2022-09-04T02:18:36.579Z,1013.29
2022-09-04T02:19:36.565Z,1013.27
2022-09-04T02:20:36.547Z,1013.29
2022-09-04T02:21:36.559Z,1013.29
2022-09-04T02:22:36.545Z,1013.30
2022-09-04T02:23:36.512Z,1013.30
2022-09-04T02:24:36.512Z,1013.29
2022-09-04T02:25:36.497Z,1013.32
2022-09-04T02:26:36.494Z,1013.32
2022-09-04T02:27:36.505Z,1013.35
2022-09-04T02:28:36.468Z,1013.33
2022-09-04T02:29:36.465Z,1013.33
2022-09-04T02:30:36.441Z,1013.32
2022-09-04T02:31:36.484Z,1013.38
2022-09-04T02:32:36.438Z,1013.36
2022-09-04T02:33:36.419Z,1013.34
2022-09-04T02:34:36.402Z,1013.31
2022-09-04T02:35:36.428Z,1013.32
2022-09-04T02:36:36.378Z,1013.32
2022-09-04T02:37:36.376Z,1013.34
2022-09-04T02:38:36.365Z,1013.31
2022-09-04T02:39:36.402Z,1013.31
2022-09-04T02:40:36.364Z,1013.32
2022-09-04T02:41:36.318Z,1013.32
2022-09-04T02:42:36.311Z,1013.31
2022-09-04T02:43:36.306Z,1013.31
2022-09-04T02:44:36.289Z,1013.34
2022-09-04T02:45:36.292Z,1013.35
2022-09-04T02:46:38.167Z,1013.34
2022-09-04T02:47:36.259Z,1013.34
2022-09-04T02:48:36.247Z,1013.32
2022-09-04T02:49:36.251Z,1013.38
2022-09-04T02:50:36.244Z,1013.45
2022-09-04T02:51:36.214Z,1013.46
2022-09-04T02:52:36.198Z,1013.44
2022-09-04T02:53:36.192Z,1013.45
2022-09-04T02:54:36.181Z,1013.42
2022-09-04T02:55:36.190Z,1013.45
2022-09-04T02:56:36.163Z,1013.44
2022-09-04T02:57:36.147Z,1013.47
2022-09-04T02:58:36.135Z,1013.47
2022-09-04T02:59:36.129Z,1013.45
2022-09-04T03:00:36.179Z,1013.49
2022-09-04T03:01:36.153Z,1013.46
2022-09-04T03:02:36.104Z,1013.43
2022-09-04T03:03:36.084Z,1013.43
2022-09-04T03:04:36.069Z,1013.45
2022-09-04T03:05:36.074Z,1013.43
2022-09-04T03:06:36.053Z,1013.40
2022-09-04T03:07:36.050Z,1013.41
2022-09-04T03:08:36.466Z,1013.43
2022-09-04T03:09:36.030Z,1013.40
2022-09-04T03:10:36.010Z,1013.41
2022-09-04T03:11:36.000Z,1013.41
2022-09-04T03:12:35.980Z,1013.37
2022-09-04T03:13:35.982Z,1013.40
2022-09-04T03:14:35.966Z,1013.38
2022-09-04T03:15:36.003Z,1013.40
2022-09-04T03:16:35.982Z,1013.37
2022-09-04T03:17:35.928Z,1013.41
2022-09-04T03:18:35.916Z,1013.39
2022-09-04T03:19:35.943Z,1013.40
2022-09-04T03:20:35.898Z,1013.39
2022-09-04T03:21:35.888Z,1013.43
2022-09-04T03:22:35.883Z,1013.41
2022-09-04T03:23:35.891Z,1013.41
2022-09-04T03:24:35.858Z,1013.42
2022-09-04T03:25:35.851Z,1013.40
2022-09-04T03:26:35.829Z,1013.43
2022-09-04T03:27:35.845Z,1013.43
2022-09-04T03:28:35.811Z,1013.48
2022-09-04T03:29:35.810Z,1013.50
2022-09-04T03:30:35.803Z,1013.45
2022-09-04T03:31:35.836Z,1013.45
2022-09-04T03:32:35.767Z,1013.50
2022-09-04T03:33:35.753Z,1013.47
2022-09-04T03:34:35.746Z,1013.48
2022-09-04T03:35:35.745Z,1013.49
2022-09-04T03:36:35.762Z,1013.50
2022-09-04T03:37:35.721Z,1013.47
2022-09-04T03:38:35.705Z,1013.48
2022-09-04T03:39:35.739Z,1013.50
2022-09-04T03:40:35.688Z,1013.54
2022-09-04T03:41:35.669Z,1013.53
2022-09-04T03:42:35.666Z,1013.51
2022-09-04T03:43:35.655Z,1013.53
2022-09-04T03:44:35.644Z,1013.53
2022-09-04T03:45:35.629Z,1013.51
2022-09-04T03:46:35.691Z,1013.50
2022-09-04T03:47:35.612Z,1013.50
2022-09-04T03:48:35.597Z,1013.52
2022-09-04T03:49:35.604Z,1013.53
2022-09-04T03:50:35.572Z,1013.55
2022-09-04T03:51:35.558Z,1013.57
2022-09-04T03:52:35.562Z,1013.55
2022-09-04T03:53:35.561Z,1013.53
2022-09-04T03:54:35.535Z,1013.55
2022-09-04T03:55:35.521Z,1013.54
2022-09-04T03:56:35.511Z,1013.58
2022-09-04T03:57:35.496Z,1013.53
2022-09-04T03:58:35.491Z,1013.57
2022-09-04T03:59:37.304Z,1013.57
2022-09-04T04:00:35.494Z,1013.59
2022-09-04T04:01:35.460Z,1013.60
2022-09-04T04:02:35.505Z,1013.62
2022-09-04T04:03:35.431Z,1013.61
2022-09-04T04:04:35.448Z,1013.65
2022-09-04T04:05:35.421Z,1013.67
2022-09-04T04:06:35.396Z,1013.69
2022-09-04T04:07:35.397Z,1013.69
2022-09-04T04:08:35.380Z,1013.72
2022-09-04T04:09:35.409Z,1013.65
2022-09-04T04:10:35.352Z,1013.68
2022-09-04T04:11:36.161Z,1013.70
2022-09-04T04:12:35.338Z,1013.71
2022-09-04T04:13:35.331Z,1013.74
2022-09-04T04:14:35.306Z,1013.78
2022-09-04T04:15:35.317Z,1013.79
2022-09-04T04:16:35.336Z,1013.77
2022-09-04T04:17:35.283Z,1013.82
2022-09-04T04:18:35.274Z,1013.83
2022-09-04T04:19:35.258Z,1013.81
2022-09-04T04:20:35.256Z,1013.81
2022-09-04T04:21:35.253Z,1013.79
2022-09-04T04:22:35.229Z,1013.83
2022-09-04T04:23:35.211Z,1013.79
2022-09-04T04:24:35.203Z,1013.79
2022-09-04T04:25:35.190Z,1013.80
2022-09-04T04:26:35.191Z,1013.79
2022-09-04T04:27:35.189Z,1013.78
2022-09-04T04:28:35.168Z,1013.81
2022-09-04T04:29:35.154Z,1013.82
2022-09-04T04:30:35.146Z,1013.81
2022-09-04T04:31:35.160Z,1013.83
2022-09-04T04:32:35.152Z,1013.82
2022-09-04T04:33:35.123Z,1013.81
2022-09-04T04:34:35.095Z,1013.83
2022-09-04T04:35:35.084Z,1013.83
2022-09-04T04:36:35.076Z,1013.83
2022-09-04T04:37:35.070Z,1013.86
2022-09-04T04:38:35.065Z,1013.82
2022-09-04T04:39:35.089Z,1013.85
2022-09-04T04:40:35.028Z,1013.87
2022-09-04T04:41:35.023Z,1013.91
2022-09-04T04:42:35.015Z,1013.92
2022-09-04T04:43:35.007Z,1013.92
2022-09-04T04:44:34.986Z,1013.96
2022-09-04T04:45:34.997Z,1013.97
2022-09-04T04:46:35.055Z,1013.96
2022-09-04T04:47:34.962Z,1013.97
2022-09-04T04:48:34.955Z,1014.01
2022-09-04T04:49:34.940Z,1013.97
2022-09-04T04:50:34.953Z,1014.02
2022-09-04T04:51:34.909Z,1014.02
2022-09-04T04:52:34.899Z,1013.98
2022-09-04T04:53:34.887Z,1013.97
2022-09-04T04:54:34.911Z,1013.96
2022-09-04T04:55:34.875Z,1013.96
2022-09-04T04:56:34.862Z,1013.93
2022-09-04T04:57:34.854Z,1013.95
2022-09-04T04:58:34.837Z,1013.92
2022-09-04T04:59:34.821Z,1013.98
2022-09-04T05:00:34.817Z,1013.97
2022-09-04T05:01:34.960Z,1014.00
2022-09-04T05:02:34.955Z,1014.02
2022-09-04T05:03:34.775Z,1014.03
2022-09-04T05:04:34.768Z,1014.03
2022-09-04T05:05:34.766Z,1014.08
2022-09-04T05:06:34.747Z,1014.09
2022-09-04T05:07:34.767Z,1014.11
2022-09-04T05:08:34.724Z,1014.11
2022-09-04T05:09:34.716Z,1014.13
2022-09-04T05:10:34.700Z,1014.16
2022-09-04T05:11:34.701Z,1014.17
2022-09-04T05:12:34.684Z,1014.23
2022-09-04T05:13:34.676Z,1014.28
2022-09-04T05:14:34.656Z,1014.32
2022-09-04T05:15:40.688Z,1014.31
2022-09-04T05:16:34.666Z,1014.35
2022-09-04T05:17:34.642Z,1014.44
2022-09-04T05:18:34.617Z,1014.41
2022-09-04T05:19:34.610Z,1014.43
2022-09-04T05:20:34.583Z,1014.44
2022-09-04T05:21:34.575Z,1014.43
2022-09-04T05:22:34.663Z,1014.43
2022-09-04T05:23:34.577Z,1014.50
2022-09-04T05:24:34.554Z,1014.46
2022-09-04T05:25:34.535Z,1014.47
2022-09-04T05:26:34.523Z,1014.48
2022-09-04T05:27:34.514Z,1014.49
2022-09-04T05:28:34.515Z,1014.53
2022-09-04T05:29:34.497Z,1014.53
2022-09-04T05:30:34.474Z,1014.58
2022-09-04T05:31:34.524Z,1014.61
2022-09-04T05:32:34.460Z,1014.63
2022-09-04T05:33:34.453Z,1014.69
2022-09-04T05:34:34.432Z,1014.71
2022-09-04T05:35:35.646Z,1014.73
2022-09-04T05:36:34.433Z,1014.69
2022-09-04T05:37:34.412Z,1014.72
2022-09-04T05:38:34.410Z,1014.67
2022-09-04T05:39:34.434Z,1014.76
2022-09-04T05:40:34.366Z,1014.74
2022-09-04T05:41:34.361Z,1014.78
2022-09-04T05:42:34.346Z,1014.80
2022-09-04T05:43:34.347Z,1014.80
2022-09-04T05:44:34.336Z,1014.81
2022-09-04T05:45:34.339Z,1014.85
2022-09-04T05:46:34.386Z,1014.85
2022-09-04T05:47:34.331Z,1014.88
2022-09-04T05:48:34.303Z,1014.87
2022-09-04T05:49:34.272Z,1014.87
2022-09-04T05:50:34.270Z,1014.90
2022-09-04T05:51:34.854Z,1014.91
2022-09-04T05:52:34.244Z,1014.92
2022-09-04T05:53:34.240Z,1014.95
2022-09-04T05:54:34.218Z,1014.83
2022-09-04T05:55:34.218Z,1014.84
2022-09-04T05:56:34.195Z,1014.85
2022-09-04T05:57:34.198Z,1014.88
2022-09-04T05:58:34.175Z,1014.92
2022-09-04T05:59:34.161Z,1014.91
2022-09-04T06:00:34.158Z,1014.90
2022-09-04T06:01:34.191Z,1014.95
2022-09-04T06:02:34.216Z,1014.95
2022-09-04T06:03:34.127Z,1014.95
2022-09-04T06:04:34.111Z,1014.99
2022-09-04T06:05:34.097Z,1015.03
2022-09-04T06:06:34.082Z,1015.00
2022-09-04T06:07:34.101Z,1015.03
2022-09-04T06:08:34.085Z,1014.99
2022-09-04T06:09:34.058Z,1015.03
2022-09-04T06:10:34.046Z,1015.04
2022-09-04T06:11:34.035Z,1015.10
2022-09-04T06:12:34.023Z,1015.11
2022-09-04T06:13:34.019Z,1015.09
2022-09-04T06:14:33.995Z,1015.10
2022-09-04T06:15:33.999Z,1015.11
2022-09-04T06:16:33.984Z,1015.12
2022-09-04T06:17:33.973Z,1015.13
2022-09-04T06:18:33.965Z,1015.13
2022-09-04T06:19:33.957Z,1015.12
2022-09-04T06:20:33.942Z,1015.13
2022-09-04T06:21:33.925Z,1015.16
2022-09-04T06:22:33.912Z,1015.15
2022-09-04T06:23:33.928Z,1015.09
2022-09-04T06:24:33.907Z,1015.12
2022-09-04T06:25:33.891Z,1015.11
2022-09-04T06:26:33.879Z,1015.11
2022-09-04T06:27:35.341Z,1015.10
2022-09-04T06:28:33.844Z,1015.09
2022-09-04T06:29:33.862Z,1015.07
2022-09-04T06:30:33.841Z,1015.10
2022-09-04T06:31:33.896Z,1015.09
2022-09-04T06:32:33.801Z,1015.10
2022-09-04T06:33:33.795Z,1015.13
2022-09-04T06:34:33.795Z,1015.14
2022-09-04T06:35:33.784Z,1015.15
2022-09-04T06:36:33.758Z,1015.14
2022-09-04T06:37:33.763Z,1015.14
2022-09-04T06:38:33.744Z,1015.16
2022-09-04T06:39:33.794Z,1015.15
2022-09-04T06:40:33.746Z,1015.16
2022-09-04T06:41:33.706Z,1015.19
2022-09-04T06:42:33.696Z,1015.19
2022-09-04T06:43:33.697Z,1015.20
2022-09-04T06:44:33.677Z,1015.22
2022-09-04T06:45:33.663Z,1015.22
2022-09-04T06:46:33.701Z,1015.20
2022-09-04T06:47:33.649Z,1015.22
2022-09-04T06:48:33.641Z,1015.22
2022-09-04T06:49:33.629Z,1015.23
2022-09-04T06:50:33.625Z,1015.24
2022-09-04T06:51:33.667Z,1015.28
2022-09-04T06:52:33.598Z,1015.32
2022-09-04T06:53:33.651Z,1015.32
2022-09-04T06:54:33.566Z,1015.34
2022-09-04T06:55:33.576Z,1015.33
2022-09-04T06:56:33.556Z,1015.38
2022-09-04T06:57:33.544Z,1015.38
2022-09-04T06:58:33.669Z,1015.44
2022-09-04T06:59:33.512Z,1015.43
2022-09-04T07:00:33.507Z,1015.44
2022-09-04T07:01:33.620Z,1015.39
2022-09-04T07:02:33.643Z,1015.40
2022-09-04T07:03:33.466Z,1015.44
2022-09-04T07:04:33.657Z,1015.42
2022-09-04T07:05:33.452Z,1015.43
2022-09-04T07:06:33.436Z,1015.40
2022-09-04T07:07:33.434Z,1015.44
2022-09-04T07:08:33.424Z,1015.42
2022-09-04T07:09:33.653Z,1015.42
2022-09-04T07:10:33.401Z,1015.41
2022-09-04T07:11:33.385Z,1015.43
2022-09-04T07:12:33.379Z,1015.43
2022-09-04T07:13:33.374Z,1015.48
2022-09-04T07:14:33.357Z,1015.47
2022-09-04T07:15:33.428Z,1015.48
2022-09-04T07:16:33.332Z,1015.51
2022-09-04T07:17:33.313Z,1015.52
2022-09-04T07:18:33.313Z,1015.54
2022-09-04T07:19:33.304Z,1015.57
2022-09-04T07:20:33.299Z,1015.52
2022-09-04T07:21:33.279Z,1015.49
2022-09-04T07:22:33.260Z,1015.48
2022-09-04T07:23:33.255Z,1015.48
2022-09-04T07:24:33.251Z,1015.38
2022-09-04T07:25:33.240Z,1015.39
2022-09-04T07:26:33.462Z,1015.35
2022-09-04T07:27:33.213Z,1015.38
2022-09-04T07:28:33.205Z,1015.37
2022-09-04T07:29:33.192Z,1015.37
2022-09-04T07:30:33.189Z,1015.40
2022-09-04T07:31:33.245Z,1015.40
2022-09-04T07:32:33.168Z,1015.42
2022-09-04T07:33:33.164Z,1015.43
2022-09-04T07:34:33.145Z,1015.43
2022-09-04T07:35:33.121Z,1015.44
2022-09-04T07:36:33.117Z,1015.43
2022-09-04T07:37:33.111Z,1015.46
2022-09-04T07:38:33.138Z,1015.47
2022-09-04T07:39:33.149Z,1015.48
2022-09-04T07:40:33.067Z,1015.53
2022-09-04T07:41:33.067Z,1015.47
2022-09-04T07:42:33.069Z,1015.47
2022-09-04T07:43:33.047Z,1015.45
2022-09-04T07:44:33.028Z,1015.43
2022-09-04T07:45:33.027Z,1015.41
2022-09-04T07:46:33.077Z,1015.40
2022-09-04T07:47:33.038Z,1015.42
2022-09-04T07:48:33.024Z,1015.44
2022-09-04T07:49:32.977Z,1015.42
2022-09-04T07:50:32.970Z,1015.47
2022-09-04T07:51:32.945Z,1015.51
2022-09-04T07:52:32.957Z,1015.53
2022-09-04T07:53:32.970Z,1015.54
2022-09-04T07:54:32.950Z,1015.53
2022-09-04T07:55:32.901Z,1015.55
2022-09-04T07:56:32.893Z,1015.53
2022-09-04T07:57:32.888Z,1015.55
2022-09-04T07:58:32.890Z,1015.57
2022-09-04T07:59:32.907Z,1015.58
2022-09-04T08:00:32.913Z,1015.63
2022-09-04T08:01:35.076Z,1015.64
2022-09-04T08:02:32.838Z,1015.63
2022-09-04T08:03:32.840Z,1015.72
2022-09-04T08:04:32.846Z,1015.73
2022-09-04T08:05:32.803Z,1015.74
2022-09-04T08:06:32.790Z,1015.72
2022-09-04T08:07:32.809Z,1015.75
2022-09-04T08:08:32.770Z,1015.80
2022-09-04T08:09:32.757Z,1015.75
2022-09-04T08:10:32.755Z,1015.77
2022-09-04T08:11:32.739Z,1015.80
2022-09-04T08:12:32.725Z,1015.80
2022-09-04T08:13:32.714Z,1015.80
2022-09-04T08:14:32.721Z,1015.87
2022-09-04T08:15:32.747Z,1015.82
2022-09-04T08:16:32.690Z,1015.83
2022-09-04T08:17:32.683Z,1015.84
2022-09-04T08:18:32.662Z,1015.88
2022-09-04T08:19:32.652Z,1015.85
2022-09-04T08:20:32.652Z,1015.84
2022-09-04T08:21:32.624Z,1015.91
2022-09-04T08:22:32.635Z,1015.89
2022-09-04T08:23:32.619Z,1015.90
2022-09-04T08:24:32.598Z,1015.93
2022-09-04T08:25:32.577Z,1015.92
2022-09-04T08:26:32.577Z,1015.93
2022-09-04T08:27:32.555Z,1015.94
2022-09-04T08:28:32.593Z,1015.89
2022-09-04T08:29:32.546Z,1015.93
2022-09-04T08:30:32.534Z,1015.94
2022-09-04T08:31:32.515Z,1015.97
2022-09-04T08:32:38.374Z,1015.92
2022-09-04T08:33:32.506Z,1015.96
2022-09-04T08:34:32.520Z,1015.97
2022-09-04T08:35:32.477Z,1016.00
2022-09-04T08:36:32.473Z,1015.95
2022-09-04T08:37:32.448Z,1015.92
2022-09-04T08:38:32.447Z,1015.96
2022-09-04T08:39:32.507Z,1015.96
2022-09-04T08:40:32.416Z,1015.97
2022-09-04T08:41:32.411Z,1015.95
2022-09-04T08:42:32.401Z,1015.93
2022-09-04T08:43:32.414Z,1015.88
2022-09-04T08:44:32.397Z,1015.86
2022-09-04T08:45:32.375Z,1015.93
2022-09-04T08:46:32.409Z,1015.90
2022-09-04T08:47:32.784Z,1015.88
2022-09-04T08:48:32.340Z,1015.86
2022-09-04T08:49:32.317Z,1015.90
2022-09-04T08:50:32.318Z,1015.87
2022-09-04T08:51:32.305Z,1015.86
2022-09-04T08:52:32.313Z,1015.88
2022-09-04T08:53:32.277Z,1015.89
2022-09-04T08:54:32.336Z,1015.86
2022-09-04T08:55:32.274Z,1015.85
2022-09-04T08:56:32.263Z,1015.85
2022-09-04T08:57:32.249Z,1015.91
2022-09-04T08:58:32.224Z,1015.79
2022-09-04T08:59:32.212Z,1015.86
2022-09-04T09:00:32.225Z,1015.84
2022-09-04T09:01:32.231Z,1015.86
2022-09-04T09:02:32.293Z,1015.82
2022-09-04T09:03:32.192Z,1015.84
2022-09-04T09:04:32.173Z,1015.91
2022-09-04T09:05:32.159Z,1015.91
2022-09-04T09:06:32.184Z,1015.89
2022-09-04T09:07:32.145Z,1015.87
2022-09-04T09:08:32.260Z,1015.89
2022-09-04T09:09:32.112Z,1015.91
2022-09-04T09:10:32.099Z,1015.91
2022-09-04T09:11:32.104Z,1015.89
2022-09-04T09:12:40.281Z,1015.93
2022-09-04T09:13:32.090Z,1015.90
2022-09-04T09:14:32.066Z,1015.86
2022-09-04T09:15:32.058Z,1015.86
2022-09-04T09:16:32.079Z,1015.89
2022-09-04T09:17:34.488Z,1015.87
2022-09-04T09:18:32.045Z,1015.85
2022-09-04T09:19:32.028Z,1015.89
2022-09-04T09:20:31.996Z,1015.92
2022-09-04T09:21:31.980Z,1015.89
2022-09-04T09:22:31.974Z,1015.89
2022-09-04T09:23:31.952Z,1015.89
2022-09-04T09:24:31.946Z,1015.87
2022-09-04T09:25:31.940Z,1015.90
2022-09-04T09:26:31.925Z,1015.84
2022-09-04T09:27:31.927Z,1015.91
2022-09-04T09:28:31.909Z,1015.85
2022-09-04T09:29:31.894Z,1015.88
2022-09-04T09:30:31.942Z,1015.87
2022-09-04T09:31:31.884Z,1015.94
2022-09-04T09:32:31.887Z,1015.87
2022-09-04T09:33:31.849Z,1015.89
2022-09-04T09:34:31.842Z,1015.94
2022-09-04T09:35:31.845Z,1015.91
2022-09-04T09:36:31.824Z,1015.86
2022-09-04T09:37:31.829Z,1015.87
2022-09-04T09:38:31.825Z,1015.89
2022-09-04T09:39:31.880Z,1015.83
2022-09-04T09:40:31.790Z,1015.84
2022-09-04T09:41:31.776Z,1015.80
2022-09-04T09:42:31.787Z,1015.82
2022-09-04T09:43:31.779Z,1015.80
2022-09-04T09:44:31.745Z,1015.84
2022-09-04T09:45:31.725Z,1015.81
2022-09-04T09:46:31.719Z,1015.83
2022-09-04T09:47:31.701Z,1015.82
2022-09-04T09:48:31.713Z,1015.83
2022-09-04T09:49:31.680Z,1015.86
2022-09-04T09:50:31.693Z,1015.90
2022-09-04T09:51:31.652Z,1015.84
2022-09-04T09:52:31.651Z,1015.90
2022-09-04T09:53:31.638Z,1015.87
2022-09-04T09:54:31.658Z,1015.86
2022-09-04T09:55:31.618Z,1015.87
2022-09-04T09:56:31.605Z,1015.81
2022-09-04T09:57:33.848Z,1015.81
2022-09-04T09:58:31.583Z,1015.81
2022-09-04T09:59:31.571Z,1015.80
2022-09-04T10:00:31.581Z,1015.71
2022-09-04T10:01:31.609Z,1015.72
2022-09-04T10:02:31.647Z,1015.72
2022-09-04T10:03:31.516Z,1015.76
2022-09-04T10:04:34.142Z,1015.78
2022-09-04T10:05:31.513Z,1015.76
2022-09-04T10:06:31.515Z,1015.75
2022-09-04T10:07:31.478Z,1015.80
2022-09-04T10:08:35.889Z,1015.80
2022-09-04T10:09:31.455Z,1015.82
2022-09-04T10:10:31.453Z,1015.81
2022-09-04T10:11:31.449Z,1015.80
2022-09-04T10:12:31.447Z,1015.83
2022-09-04T10:13:31.406Z,1015.84
2022-09-04T10:14:31.403Z,1015.80
2022-09-04T10:15:31.392Z,1015.80
2022-09-04T10:16:31.461Z,1015.81
2022-09-04T10:17:31.392Z,1015.83
2022-09-04T10:18:31.389Z,1015.83
2022-09-04T10:19:31.344Z,1015.85
2022-09-04T10:20:31.335Z,1015.77
2022-09-04T10:21:31.328Z,1015.84
2022-09-04T10:22:31.321Z,1015.84
2022-09-04T10:23:31.318Z,1015.81
2022-09-04T10:24:31.293Z,1015.81
2022-09-04T10:25:31.279Z,1015.83
2022-09-04T10:26:31.891Z,1015.86
2022-09-04T10:27:31.282Z,1015.86
2022-09-04T10:28:31.288Z,1015.90
2022-09-04T10:29:31.254Z,1015.87
2022-09-04T10:30:31.277Z,1015.82
2022-09-04T10:31:31.217Z,1015.83
2022-09-04T10:32:31.214Z,1015.85
2022-09-04T10:33:31.196Z,1015.87
2022-09-04T10:34:31.222Z,1015.85
2022-09-04T10:35:31.187Z,1015.88
2022-09-04T10:36:31.196Z,1015.85
2022-09-04T10:37:31.159Z,1015.90
2022-09-04T10:38:31.155Z,1015.91
2022-09-04T10:39:31.186Z,1015.93
2022-09-04T10:40:31.139Z,1015.93
2022-09-04T10:41:31.119Z,1015.97
2022-09-04T10:42:31.122Z,1015.94
2022-09-04T10:43:31.099Z,1015.92
2022-09-04T10:44:31.090Z,1015.92
2022-09-04T10:45:31.136Z,1015.99
2022-09-04T10:46:31.103Z,1015.96
2022-09-04T10:47:31.067Z,1015.98
2022-09-04T10:48:31.072Z,1016.02
2022-09-04T10:49:31.051Z,1015.99
2022-09-04T10:50:31.073Z,1015.97
2022-09-04T10:51:31.068Z,1015.90
2022-09-04T10:52:31.022Z,1015.94
2022-09-04T10:53:31.453Z,1015.86
2022-09-04T10:54:30.971Z,1015.94
2022-09-04T10:55:30.973Z,1015.97
2022-09-04T10:56:30.955Z,1016.00
2022-09-04T10:57:30.975Z,1015.95
2022-09-04T10:58:30.939Z,1015.96
2022-09-04T10:59:30.924Z,1015.97
2022-09-04T11:00:30.908Z,1015.94
2022-09-04T11:01:30.939Z,1015.96
2022-09-04T11:02:30.936Z,1015.98
2022-09-04T11:03:30.895Z,1015.94
2022-09-04T11:04:30.870Z,1015.92
2022-09-04T11:05:30.863Z,1015.94
2022-09-04T11:06:30.844Z,1015.92
2022-09-04T11:07:30.849Z,1015.91
2022-09-04T11:08:30.842Z,1015.90
2022-09-04T11:09:30.822Z,1015.91
2022-09-04T11:10:30.805Z,1015.88
2022-09-04T11:11:30.831Z,1015.92
2022-09-04T11:12:30.785Z,1015.94
2022-09-04T11:13:30.792Z,1015.95
2022-09-04T11:14:30.782Z,1016.00
2022-09-04T11:15:30.750Z,1015.98
2022-09-04T11:16:30.816Z,1016.01
2022-09-04T11:17:30.750Z,1016.02
2022-09-04T11:18:30.722Z,1016.03
2022-09-04T11:19:30.718Z,1015.95
2022-09-04T11:20:30.712Z,1015.95
2022-09-04T11:21:30.682Z,1015.97
2022-09-04T11:22:30.688Z,1015.96
2022-09-04T11:23:30.672Z,1015.96
2022-09-04T11:24:30.660Z,1015.96
2022-09-04T11:25:30.651Z,1016.02
2022-09-04T11:26:30.645Z,1015.98
2022-09-04T11:27:30.629Z,1015.96
2022-09-04T11:28:30.621Z,1015.99
2022-09-04T11:29:30.604Z,1015.95
2022-09-04T11:30:30.606Z,1015.93
2022-09-04T11:31:30.665Z,1015.93
2022-09-04T11:32:30.570Z,1015.95
2022-09-04T11:33:30.557Z,1015.88
2022-09-04T11:34:30.559Z,1015.97
2022-09-04T11:35:30.543Z,1015.98
2022-09-04T11:36:30.584Z,1015.89
2022-09-04T11:37:30.514Z,1015.91
2022-09-04T11:38:30.515Z,1015.96
2022-09-04T11:39:30.524Z,1015.94
2022-09-04T11:40:30.489Z,1015.90
2022-09-04T11:41:30.482Z,1015.90
2022-09-04T11:42:30.496Z,1015.88
2022-09-04T11:43:30.458Z,1015.88
2022-09-04T11:44:30.445Z,1015.89
2022-09-04T11:45:30.598Z,1015.83
2022-09-04T11:46:30.435Z,1015.84
2022-09-04T11:47:30.431Z,1015.82
2022-09-04T11:48:30.418Z,1015.86
2022-09-04T11:49:30.400Z,1015.78
2022-09-04T11:50:30.378Z,1015.73
2022-09-04T11:51:30.367Z,1015.74
2022-09-04T11:52:30.362Z,1015.78
2022-09-04T11:53:30.372Z,1015.77
2022-09-04T11:54:30.354Z,1015.75
2022-09-04T11:55:30.327Z,1015.78
2022-09-04T11:56:30.325Z,1015.75
2022-09-04T11:57:30.308Z,1015.73
2022-09-04T11:58:30.291Z,1015.73
2022-09-04T11:59:30.293Z,1015.72
2022-09-04T12:00:30.277Z,1015.73
2022-09-04T12:01:30.270Z,1015.70
2022-09-04T12:02:30.330Z,1015.80
2022-09-04T12:03:30.543Z,1015.69
2022-09-04T12:04:30.261Z,1015.73
2022-09-04T12:05:30.248Z,1015.70